createdAt,value
2017-08-15T00:01:18.410Z,3.60
2017-08-15T00:03:45.902Z,3.70
2017-08-15T00:06:13.354Z,3.63
2017-08-15T00:08:40.841Z,3.93
2017-08-15T00:11:08.357Z,3.40
2017-08-15T00:13:35.840Z,3.57
2017-08-15T00:16:03.300Z,3.70
2017-08-15T00:18:31.536Z,3.60
2017-08-15T00:20:58.993Z,3.50
2017-08-15T00:23:26.450Z,3.60
2017-08-15T00:25:53.973Z,3.77
2017-08-15T00:28:21.433Z,4.03
2017-08-15T00:30:48.897Z,3.40
2017-08-15T00:33:16.567Z,3.80
2017-08-15T00:35:44.044Z,3.70
2017-08-15T00:38:11.514Z,4.33
2017-08-15T00:40:38.993Z,3.67
2017-08-15T00:43:06.464Z,4.87
2017-08-15T00:45:34.684Z,3.90
2017-08-15T00:48:02.145Z,3.60
2017-08-15T00:50:29.613Z,3.70
2017-08-15T00:52:57.121Z,3.70
2017-08-15T00:55:24.651Z,3.80
2017-08-15T00:57:52.131Z,3.40
2017-08-15T01:00:20.372Z,4.07
2017-08-15T01:02:47.856Z,3.90
2017-08-15T01:05:16.103Z,3.87
2017-08-15T01:07:43.771Z,3.60
2017-08-15T01:10:11.236Z,3.87
2017-08-15T01:12:38.704Z,3.53
2017-08-15T01:15:06.169Z,3.50
2017-08-15T01:17:33.629Z,3.50
2017-08-15T01:20:01.157Z,3.60
2017-08-15T01:22:28.616Z,4.07
2017-08-15T01:24:56.094Z,4.17
2017-08-15T01:27:23.537Z,3.90
2017-08-15T01:29:50.993Z,3.77
2017-08-15T01:32:18.449Z,4.17
2017-08-15T01:34:45.921Z,3.97
2017-08-15T01:37:19.181Z,4.40
2017-08-15T01:39:46.652Z,3.80
2017-08-15T01:42:14.142Z,3.93
2017-08-15T01:44:41.586Z,4.10
2017-08-15T01:47:09.040Z,3.97
2017-08-15T01:49:36.496Z,3.60
2017-08-15T01:52:03.981Z,3.87
2017-08-15T01:54:31.445Z,4.37
2017-08-15T01:56:58.946Z,4.03
2017-08-15T01:59:26.425Z,4.10
2017-08-15T02:01:53.873Z,4.40
2017-08-15T02:04:21.362Z,3.47
2017-08-15T02:06:48.839Z,3.83
2017-08-15T02:09:16.319Z,3.80
2017-08-15T02:11:43.792Z,4.20
2017-08-15T02:14:11.248Z,3.80
2017-08-15T02:16:38.737Z,4.20
2017-08-15T02:19:06.198Z,4.10
2017-08-15T02:21:34.462Z,4.97
2017-08-15T02:24:01.944Z,4.00
2017-08-15T02:26:29.443Z,4.47
2017-08-15T02:28:56.910Z,4.10
2017-08-15T02:31:24.357Z,3.80
2017-08-15T02:33:51.868Z,4.13
2017-08-15T02:36:19.351Z,4.00
2017-08-15T02:38:46.804Z,3.80
2017-08-15T02:41:14.312Z,3.93
2017-08-15T02:43:41.784Z,3.70
2017-08-15T02:46:09.246Z,4.13
2017-08-15T02:48:36.707Z,4.20
2017-08-15T02:51:04.167Z,5.07
2017-08-15T02:53:32.394Z,6.17
2017-08-15T02:55:59.858Z,7.00
2017-08-15T02:58:27.300Z,7.10
2017-08-15T03:00:54.772Z,8.37
2017-08-15T03:03:22.224Z,6.80
2017-08-15T03:05:49.688Z,6.27
2017-08-15T03:08:17.154Z,5.63
2017-08-15T03:10:44.618Z,6.03
2017-08-15T03:13:12.078Z,5.70
2017-08-15T03:15:39.528Z,5.60
2017-08-15T03:18:07.015Z,5.50
2017-08-15T03:20:34.484Z,5.27
2017-08-15T03:23:02.732Z,4.70
2017-08-15T03:25:30.172Z,4.80
2017-08-15T03:27:57.630Z,5.10
2017-08-15T03:30:25.103Z,4.80
2017-08-15T03:32:52.607Z,5.10
2017-08-15T03:35:20.073Z,5.30
2017-08-15T03:37:47.523Z,5.27
2017-08-15T03:40:14.999Z,5.43
2017-08-15T03:42:42.504Z,5.03
2017-08-15T03:45:09.966Z,4.70
2017-08-15T03:47:37.430Z,4.57
2017-08-15T03:50:04.887Z,5.30
2017-08-15T03:52:32.370Z,5.63
2017-08-15T03:54:59.832Z,13.00
2017-08-15T03:57:27.296Z,6.33
2017-08-15T03:59:54.758Z,7.70
2017-08-15T04:02:22.221Z,8.23
2017-08-15T04:04:49.678Z,7.50
2017-08-15T04:07:17.137Z,6.80
2017-08-15T04:09:44.604Z,6.30
2017-08-15T04:12:12.085Z,6.73
2017-08-15T04:14:39.545Z,6.20
2017-08-15T04:17:06.992Z,5.70
2017-08-15T04:19:34.469Z,5.90
2017-08-15T04:22:02.705Z,6.03
2017-08-15T04:24:30.161Z,9.43
2017-08-15T04:26:57.617Z,6.83
2017-08-15T04:29:25.077Z,7.30
2017-08-15T04:31:52.547Z,6.70
2017-08-15T04:34:20.026Z,6.07
2017-08-15T04:36:47.494Z,6.63
2017-08-15T04:39:14.986Z,5.57
2017-08-15T04:41:42.443Z,6.50
2017-08-15T04:44:09.911Z,6.13
2017-08-15T04:46:37.377Z,7.50
2017-08-15T04:49:04.852Z,8.00
2017-08-15T04:51:32.308Z,7.33
2017-08-15T04:53:59.773Z,7.70
2017-08-15T04:56:27.269Z,7.70
2017-08-15T04:58:54.739Z,6.60
2017-08-15T05:01:22.246Z,6.20
2017-08-15T05:03:49.706Z,6.23
2017-08-15T05:06:17.175Z,5.90
2017-08-15T05:08:44.677Z,7.50
2017-08-15T05:11:12.146Z,7.80
2017-08-15T05:13:39.668Z,9.70
2017-08-15T05:16:07.165Z,9.57
2017-08-15T05:18:34.675Z,9.60
2017-08-15T05:21:02.926Z,7.70
2017-08-15T05:23:30.375Z,8.17
2017-08-15T05:25:57.872Z,7.60
2017-08-15T05:28:25.339Z,7.50
2017-08-15T05:30:52.789Z,6.67
2017-08-15T05:33:20.252Z,5.83
2017-08-15T05:35:47.756Z,6.70
2017-08-15T05:38:15.260Z,7.20
2017-08-15T05:40:43.490Z,7.83
2017-08-15T05:43:10.948Z,8.30
2017-08-15T05:45:38.436Z,8.20
2017-08-15T05:48:05.908Z,7.83
2017-08-15T05:50:34.177Z,8.40
2017-08-15T05:53:01.645Z,7.40
2017-08-15T05:55:29.895Z,7.33
2017-08-15T05:57:57.350Z,7.90
2017-08-15T06:00:24.816Z,7.20
2017-08-15T06:02:52.268Z,7.00
2017-08-15T06:05:19.750Z,6.30
2017-08-15T06:07:47.210Z,8.60
2017-08-15T06:10:14.677Z,6.83
2017-08-15T06:12:42.154Z,7.50
2017-08-15T06:15:09.626Z,7.27
2017-08-15T06:17:37.101Z,6.23
2017-08-15T06:20:04.580Z,6.00
2017-08-15T06:22:32.864Z,7.10
2017-08-15T06:25:01.227Z,7.40
2017-08-15T06:27:28.670Z,7.47
2017-08-15T06:29:56.145Z,6.37
2017-08-15T06:32:23.605Z,6.57
2017-08-15T06:34:51.073Z,6.50
2017-08-15T06:37:18.541Z,6.00
2017-08-15T06:39:45.994Z,6.13
2017-08-15T06:42:13.474Z,5.57
2017-08-15T06:44:40.933Z,6.07
2017-08-15T06:47:09.313Z,5.60
2017-08-15T06:49:36.794Z,6.03
2017-08-15T06:52:04.245Z,5.70
2017-08-15T06:54:31.712Z,5.00
2017-08-15T06:56:59.170Z,6.13
2017-08-15T06:59:26.656Z,5.77
2017-08-15T07:01:54.109Z,4.90
2017-08-15T07:04:21.591Z,5.57
2017-08-15T07:09:22.856Z,5.20
2017-08-15T07:11:50.300Z,4.97
2017-08-15T07:14:17.753Z,4.87
2017-08-15T07:16:45.208Z,5.20
2017-08-15T07:19:12.685Z,4.77
2017-08-15T07:21:40.134Z,4.70
2017-08-15T07:24:07.965Z,4.63
2017-08-15T07:26:35.448Z,5.00
2017-08-15T07:29:03.669Z,5.00
2017-08-15T07:31:31.159Z,4.73
2017-08-15T07:33:58.593Z,4.67
2017-08-15T07:36:26.060Z,4.30
2017-08-15T07:38:53.532Z,4.50
2017-08-15T07:41:20.989Z,4.30
2017-08-15T07:43:48.442Z,4.53
2017-08-15T07:46:15.908Z,4.57
2017-08-15T07:48:43.487Z,4.10
2017-08-15T07:51:10.953Z,4.10
2017-08-15T07:53:38.429Z,3.80
2017-08-15T07:56:05.904Z,4.37
2017-08-15T07:58:33.358Z,4.63
2017-08-15T08:01:00.838Z,4.20
2017-08-15T08:03:28.291Z,3.50
2017-08-15T08:05:55.794Z,3.83
2017-08-15T08:08:24.041Z,4.30
2017-08-15T08:10:51.508Z,4.17
2017-08-15T08:13:18.969Z,4.07
2017-08-15T08:15:46.448Z,4.07
2017-08-15T08:18:13.905Z,4.43
2017-08-15T08:20:42.158Z,4.80
2017-08-15T08:23:09.612Z,4.37
2017-08-15T08:25:37.065Z,4.10
2017-08-15T08:28:04.525Z,4.13
2017-08-15T08:30:31.988Z,6.53
2017-08-15T08:32:59.658Z,5.00
2017-08-15T08:35:27.105Z,4.90
2017-08-15T08:37:54.588Z,4.60
2017-08-15T08:40:22.055Z,3.87
2017-08-15T08:42:49.539Z,3.90
2017-08-15T08:45:17.021Z,4.17
2017-08-15T08:47:44.471Z,4.43
2017-08-15T08:50:11.964Z,4.13
2017-08-15T08:52:39.415Z,3.70
2017-08-15T08:55:06.865Z,4.10
2017-08-15T08:57:34.319Z,4.50
2017-08-15T09:00:01.843Z,4.30
2017-08-15T09:02:29.308Z,4.20
2017-08-15T09:04:56.782Z,4.13
2017-08-15T09:07:24.265Z,3.80
2017-08-15T09:09:51.738Z,4.07
2017-08-15T09:12:19.191Z,4.00
2017-08-15T09:14:46.677Z,4.40
2017-08-15T09:17:14.169Z,3.90
2017-08-15T09:19:41.627Z,3.90
2017-08-15T09:22:11.464Z,4.20
2017-08-15T09:24:40.767Z,3.83
2017-08-15T09:27:08.265Z,8.43
2017-08-15T09:29:41.248Z,4.53
2017-08-15T09:32:08.725Z,4.43
2017-08-15T09:34:36.200Z,4.97
2017-08-15T09:37:03.676Z,4.93
2017-08-15T09:39:31.162Z,5.53
2017-08-15T09:41:58.634Z,4.73
2017-08-15T09:44:26.094Z,5.00
2017-08-15T09:46:53.588Z,5.40
2017-08-15T09:49:21.044Z,5.20
2017-08-15T09:51:48.491Z,4.53
2017-08-15T09:54:15.995Z,5.07
2017-08-15T09:56:43.446Z,4.70
2017-08-15T09:59:10.903Z,5.30
2017-08-15T10:01:38.350Z,4.93
2017-08-15T10:04:05.809Z,4.60
2017-08-15T10:06:33.281Z,5.90
2017-08-15T10:09:00.742Z,5.50
2017-08-15T10:11:28.195Z,5.00
2017-08-15T10:13:55.651Z,5.20
2017-08-15T10:16:23.099Z,6.30
2017-08-15T10:18:50.568Z,7.20
2017-08-15T10:21:18.793Z,6.80
2017-08-15T10:23:46.267Z,6.00
2017-08-15T10:26:13.756Z,6.23
2017-08-15T10:28:41.213Z,6.00
2017-08-15T10:31:08.675Z,4.80
2017-08-15T10:33:36.133Z,4.77
2017-08-15T10:36:03.621Z,6.10
2017-08-15T10:38:31.081Z,5.13
2017-08-15T10:40:58.567Z,5.20
2017-08-15T10:43:26.024Z,4.97
2017-08-15T10:45:53.509Z,5.10
2017-08-15T10:48:20.983Z,6.30
2017-08-15T10:50:48.469Z,4.73
2017-08-15T10:53:15.917Z,4.60
2017-08-15T10:55:43.412Z,4.60
2017-08-15T10:58:10.864Z,3.93
2017-08-15T11:00:38.353Z,4.07
2017-08-15T11:03:05.849Z,4.13
2017-08-15T11:05:33.338Z,4.00
2017-08-15T11:08:00.795Z,3.53
2017-08-15T11:10:28.263Z,3.70
2017-08-15T11:12:55.709Z,3.53
2017-08-15T11:15:23.180Z,3.90
2017-08-15T11:17:50.663Z,4.10
2017-08-15T11:20:18.119Z,3.70
2017-08-15T11:22:45.598Z,3.67
2017-08-15T11:25:13.053Z,3.20
2017-08-15T11:27:40.510Z,3.50
2017-08-15T11:30:07.952Z,2.93
2017-08-15T11:32:35.401Z,3.07
2017-08-15T11:35:02.854Z,3.10
2017-08-15T11:37:30.337Z,2.70
2017-08-15T11:39:57.790Z,3.10
2017-08-15T11:42:25.245Z,3.13
2017-08-15T11:44:52.750Z,3.00
2017-08-15T11:47:20.225Z,2.10
2017-08-15T11:49:47.689Z,2.80
2017-08-15T11:52:15.140Z,2.70
2017-08-15T11:54:42.601Z,3.40
2017-08-15T11:57:10.053Z,2.53
2017-08-15T11:59:37.529Z,2.87
2017-08-15T12:02:04.990Z,2.93
2017-08-15T12:04:32.451Z,2.53
2017-08-15T12:06:59.906Z,3.00
2017-08-15T12:09:27.367Z,2.83
2017-08-15T12:11:54.815Z,2.90
2017-08-15T12:14:22.269Z,2.83
2017-08-15T12:16:49.711Z,2.90
2017-08-15T12:19:17.174Z,2.73
2017-08-15T12:21:44.624Z,2.67
2017-08-15T12:24:12.095Z,2.90
2017-08-15T12:26:39.573Z,2.70
2017-08-15T12:29:07.044Z,2.80
2017-08-15T12:31:34.508Z,2.83
2017-08-15T12:34:01.957Z,2.70
2017-08-15T12:36:29.411Z,2.47
2017-08-15T12:38:56.858Z,2.40
2017-08-15T12:41:24.318Z,2.97
2017-08-15T12:43:51.763Z,2.43
2017-08-15T12:46:19.230Z,2.50
2017-08-15T12:48:46.672Z,2.47
2017-08-15T12:51:14.124Z,2.90
2017-08-15T12:53:41.579Z,2.90
2017-08-15T12:56:09.026Z,2.73
2017-08-15T12:58:36.488Z,2.50
2017-08-15T13:01:03.951Z,2.40
2017-08-15T13:03:31.441Z,2.07
2017-08-15T13:05:59.122Z,2.50
2017-08-15T13:08:26.634Z,2.30
2017-08-15T13:10:54.099Z,2.80
2017-08-15T13:13:21.557Z,2.30
2017-08-15T13:15:49.025Z,2.23
2017-08-15T13:18:16.477Z,2.43
2017-08-15T13:20:43.919Z,2.70
2017-08-15T13:23:11.378Z,2.13
2017-08-15T13:25:38.829Z,2.70
2017-08-15T13:28:06.313Z,2.50
2017-08-15T13:30:33.810Z,2.33
2017-08-15T13:33:01.267Z,2.30
2017-08-15T13:35:28.748Z,2.43
2017-08-15T13:37:56.235Z,2.20
2017-08-15T13:40:23.706Z,2.63
2017-08-15T13:42:51.168Z,2.50
2017-08-15T13:45:18.638Z,2.50
2017-08-15T13:47:46.094Z,2.77
2017-08-15T13:50:13.557Z,2.50
2017-08-15T13:52:41.015Z,2.60
2017-08-15T13:55:08.505Z,2.73
2017-08-15T13:57:35.942Z,2.60
2017-08-15T14:00:03.403Z,2.20
2017-08-15T14:02:30.852Z,2.40
2017-08-15T14:04:58.318Z,2.23
2017-08-15T14:07:25.802Z,2.20
2017-08-15T14:09:53.271Z,2.73
2017-08-15T14:12:20.818Z,2.80
2017-08-15T14:14:48.298Z,2.67
2017-08-15T14:17:15.764Z,2.40
2017-08-15T14:19:43.246Z,2.70
2017-08-15T14:22:10.710Z,2.30
2017-08-15T14:24:38.185Z,2.43
2017-08-15T14:27:05.668Z,2.70
2017-08-15T14:29:33.123Z,2.57
2017-08-15T14:32:00.591Z,2.80
2017-08-15T14:34:28.052Z,2.43
2017-08-15T14:36:55.494Z,2.53
2017-08-15T14:39:22.966Z,2.73
2017-08-15T14:41:50.444Z,2.03
2017-08-15T14:44:17.913Z,2.30
2017-08-15T14:46:45.395Z,2.00
2017-08-15T14:49:12.851Z,2.43
2017-08-15T14:51:40.326Z,2.17
2017-08-15T14:54:07.796Z,2.37
2017-08-15T14:56:35.281Z,2.07
2017-08-15T14:59:02.739Z,2.10
2017-08-15T15:01:30.218Z,2.10
2017-08-15T15:03:57.666Z,2.27
2017-08-15T15:06:25.154Z,1.90
2017-08-15T15:08:52.610Z,2.60
2017-08-15T15:11:20.070Z,2.23
2017-08-15T15:13:47.526Z,2.00
2017-08-15T15:16:14.982Z,2.57
2017-08-15T15:18:42.438Z,2.40
2017-08-15T15:21:09.895Z,2.50
2017-08-15T15:23:37.345Z,2.63
2017-08-15T15:26:04.839Z,2.33
2017-08-15T15:28:32.297Z,2.50
2017-08-15T15:30:59.778Z,2.47
2017-08-15T15:33:27.240Z,2.53
2017-08-15T15:35:54.705Z,1.97
2017-08-15T15:38:22.171Z,2.30
2017-08-15T15:40:49.622Z,2.37
2017-08-15T15:43:17.121Z,2.43
2017-08-15T15:45:44.585Z,2.40
2017-08-15T15:48:12.035Z,2.60
2017-08-15T15:50:39.485Z,2.70
2017-08-15T15:53:06.945Z,2.40
2017-08-15T15:55:34.398Z,2.70
2017-08-15T15:58:01.870Z,2.73
2017-08-15T16:00:29.331Z,2.40
2017-08-15T16:02:56.787Z,2.53
2017-08-15T16:05:24.233Z,2.83
2017-08-15T16:07:51.705Z,2.67
2017-08-15T16:10:19.151Z,2.80
2017-08-15T16:12:46.624Z,2.80
2017-08-15T16:15:14.075Z,2.60
2017-08-15T16:17:41.542Z,2.80
2017-08-15T16:20:09.025Z,2.60
2017-08-15T16:22:36.490Z,2.60
2017-08-15T16:25:03.942Z,2.73
2017-08-15T16:27:31.385Z,2.57
2017-08-15T16:29:58.862Z,2.77
2017-08-15T16:32:26.321Z,2.60
2017-08-15T16:34:53.805Z,2.30
2017-08-15T16:37:21.254Z,2.60
2017-08-15T16:39:48.713Z,2.60
2017-08-15T16:42:16.193Z,2.80
2017-08-15T16:44:43.658Z,2.50
2017-08-15T16:47:11.121Z,2.80
2017-08-15T16:49:38.562Z,2.87
2017-08-15T16:52:06.022Z,2.83
2017-08-15T16:54:33.508Z,2.57
2017-08-15T16:57:00.980Z,2.30
2017-08-15T16:59:28.451Z,2.83
2017-08-15T17:01:55.929Z,2.70
2017-08-15T17:04:23.373Z,2.60
2017-08-15T17:06:50.829Z,2.80
2017-08-15T17:09:18.293Z,2.70
2017-08-15T17:11:45.767Z,2.73
2017-08-15T17:14:13.251Z,2.80
2017-08-15T17:16:40.697Z,2.60
2017-08-15T17:19:08.161Z,2.53
2017-08-15T17:21:35.614Z,2.67
2017-08-15T17:24:03.098Z,3.00
2017-08-15T17:26:30.574Z,2.63
2017-08-15T17:28:58.033Z,2.80
2017-08-15T17:31:25.490Z,3.07
2017-08-15T17:33:52.966Z,2.60
2017-08-15T17:36:20.414Z,2.60
2017-08-15T17:38:47.879Z,2.83
2017-08-15T17:41:15.364Z,2.80
2017-08-15T17:43:42.830Z,3.03
2017-08-15T17:46:10.298Z,2.70
2017-08-15T17:48:37.762Z,2.70
2017-08-15T17:51:05.264Z,2.57
2017-08-15T17:53:33.283Z,2.60
2017-08-15T17:56:00.747Z,2.90
2017-08-15T17:58:28.201Z,2.40
2017-08-15T18:00:55.692Z,2.40
2017-08-15T18:03:23.173Z,2.60
2017-08-15T18:05:50.630Z,2.37
2017-08-15T18:08:18.095Z,2.70
2017-08-15T18:10:45.569Z,2.70
2017-08-15T18:13:13.049Z,2.77
2017-08-15T18:15:40.503Z,2.37
2017-08-15T18:18:07.964Z,2.60
2017-08-15T18:20:35.407Z,2.60
2017-08-15T18:23:02.882Z,2.80
2017-08-15T18:25:30.360Z,2.80
2017-08-15T18:27:57.852Z,2.40
2017-08-15T18:30:25.317Z,2.70
2017-08-15T18:32:52.806Z,2.77
2017-08-15T18:35:20.254Z,2.23
2017-08-15T18:37:47.709Z,2.50
2017-08-15T18:40:15.164Z,2.33
2017-08-15T18:42:42.619Z,2.70
2017-08-15T18:45:24.723Z,2.80
2017-08-15T18:47:52.167Z,2.33
2017-08-15T18:50:19.640Z,2.63
2017-08-15T18:52:47.093Z,2.50
2017-08-15T18:55:14.549Z,2.80
2017-08-15T18:57:42.008Z,3.00
2017-08-15T19:00:09.481Z,2.30
2017-08-15T19:02:36.948Z,2.40
2017-08-15T19:05:04.407Z,2.63
2017-08-15T19:07:31.871Z,2.60
2017-08-15T19:12:33.223Z,2.37
2017-08-15T19:15:00.675Z,2.50
2017-08-15T19:17:28.131Z,2.30
2017-08-15T19:19:55.581Z,2.53
2017-08-15T19:22:23.072Z,2.50
2017-08-15T19:24:50.517Z,2.40
2017-08-15T19:27:18.009Z,2.40
2017-08-15T19:29:45.463Z,2.70
2017-08-15T19:32:12.922Z,2.17
2017-08-15T19:34:40.369Z,2.50
2017-08-15T19:37:07.871Z,2.30
2017-08-15T19:39:35.335Z,2.43
2017-08-15T19:42:02.780Z,2.60
2017-08-15T19:44:30.255Z,3.00
2017-08-15T19:46:57.718Z,2.30
2017-08-15T19:49:25.182Z,2.57
2017-08-15T19:51:52.639Z,2.40
2017-08-15T19:54:20.098Z,2.27
2017-08-15T19:56:47.537Z,2.73
2017-08-15T19:59:15.008Z,2.60
2017-08-15T20:01:42.458Z,2.50
2017-08-15T20:04:09.933Z,2.23
2017-08-15T20:06:37.400Z,2.80
2017-08-15T20:09:04.868Z,3.07
2017-08-15T20:11:32.338Z,3.23
2017-08-15T20:13:59.792Z,3.53
2017-08-15T20:16:27.243Z,3.67
2017-08-15T20:18:54.729Z,4.20
2017-08-15T20:21:22.181Z,4.40
2017-08-15T20:23:49.644Z,4.73
2017-08-15T20:26:17.113Z,4.30
2017-08-15T20:28:44.588Z,4.60
2017-08-15T20:31:12.064Z,4.70
2017-08-15T20:33:39.531Z,4.20
2017-08-15T20:36:06.999Z,4.30
2017-08-15T20:38:34.450Z,4.27
2017-08-15T20:41:01.925Z,4.17
2017-08-15T20:43:29.374Z,4.17
2017-08-15T20:45:56.848Z,4.20
2017-08-15T20:48:24.299Z,4.63
2017-08-15T20:50:51.762Z,4.80
2017-08-15T20:53:19.215Z,3.80
2017-08-15T20:55:46.707Z,4.30
2017-08-15T20:58:14.154Z,3.97
2017-08-15T21:00:41.609Z,4.50
2017-08-15T21:03:09.069Z,4.50
2017-08-15T21:05:36.530Z,4.17
2017-08-15T21:08:04.002Z,4.20
2017-08-15T21:10:31.450Z,3.63
2017-08-15T21:12:58.910Z,3.80
2017-08-15T21:15:27.206Z,4.20
2017-08-15T21:17:54.666Z,3.80
2017-08-15T21:20:22.116Z,3.37
2017-08-15T21:22:49.581Z,3.40
2017-08-15T21:25:17.056Z,3.90
2017-08-15T21:27:44.509Z,3.80
2017-08-15T21:30:11.957Z,3.63
2017-08-15T21:32:39.412Z,3.37
2017-08-15T21:35:06.866Z,3.80
2017-08-15T21:37:34.325Z,3.43
2017-08-15T21:40:01.797Z,3.30
2017-08-15T21:42:29.268Z,3.63
2017-08-15T21:44:56.741Z,3.13
2017-08-15T21:47:24.184Z,3.70
2017-08-15T21:49:51.645Z,3.43
2017-08-15T21:52:19.126Z,3.47
2017-08-15T21:54:46.592Z,3.10
2017-08-15T21:57:14.061Z,2.93
2017-08-15T21:59:41.524Z,3.40
2017-08-15T22:02:14.657Z,2.83
2017-08-15T22:04:42.117Z,3.13
2017-08-15T22:07:09.585Z,3.13
2017-08-15T22:09:37.052Z,3.00
2017-08-15T22:12:04.498Z,3.57
2017-08-15T22:14:31.964Z,3.03
2017-08-15T22:16:59.417Z,3.33
2017-08-15T22:19:26.877Z,3.13
2017-08-15T22:21:54.325Z,3.13
2017-08-15T22:24:21.791Z,3.10
2017-08-15T22:26:49.233Z,3.23
2017-08-15T22:29:16.702Z,2.97
2017-08-15T22:31:44.160Z,3.27
2017-08-15T22:34:11.624Z,3.10
2017-08-15T22:36:39.087Z,3.43
2017-08-15T22:39:06.531Z,2.87
2017-08-15T22:41:34.013Z,2.60
2017-08-15T22:44:01.475Z,2.93
2017-08-15T22:46:28.939Z,2.83
2017-08-15T22:48:56.401Z,2.80
2017-08-15T22:51:23.883Z,2.63
2017-08-15T22:53:51.336Z,3.13
2017-08-15T22:56:18.793Z,2.90
2017-08-15T22:58:46.254Z,3.27
2017-08-15T23:01:13.720Z,2.90
2017-08-15T23:03:41.180Z,2.57
2017-08-15T23:06:08.650Z,2.70
2017-08-15T23:08:36.106Z,2.60
2017-08-15T23:11:03.564Z,2.80
2017-08-15T23:13:31.039Z,2.70
2017-08-15T23:15:59.243Z,2.30
2017-08-15T23:18:26.706Z,2.60
2017-08-15T23:20:54.172Z,3.10
2017-08-15T23:23:21.653Z,2.70
2017-08-15T23:25:49.122Z,2.60
2017-08-15T23:28:16.575Z,2.53
2017-08-15T23:30:44.026Z,2.63
2017-08-15T23:33:11.479Z,2.40
2017-08-15T23:35:38.945Z,2.50
2017-08-15T23:38:06.393Z,2.67
2017-08-15T23:40:33.866Z,2.80
2017-08-15T23:43:01.312Z,2.70
2017-08-15T23:45:28.770Z,2.40
2017-08-15T23:47:56.229Z,2.40
2017-08-15T23:50:23.701Z,2.97
2017-08-15T23:52:51.138Z,2.80
2017-08-15T23:55:18.613Z,2.57
2017-08-15T23:57:46.069Z,2.80
